createdAt,value
2023-04-27T00:00:15.464Z,100.00
2023-04-27T00:02:16.940Z,100.00
2023-04-27T00:04:18.757Z,100.00
2023-04-27T00:06:20.517Z,100.00
2023-04-27T00:08:22.033Z,100.00
2023-04-27T00:10:23.648Z,100.00
2023-04-27T00:12:25.045Z,100.00
2023-04-27T00:14:26.490Z,100.00
2023-04-27T00:16:28.006Z,100.00
2023-04-27T00:18:32.827Z,100.00
2023-04-27T00:20:34.232Z,100.00
2023-04-27T00:22:35.788Z,100.00
2023-04-27T00:24:37.260Z,100.00
2023-04-27T00:26:38.681Z,100.00
2023-04-27T00:28:40.386Z,100.00
2023-04-27T00:30:41.962Z,100.00
2023-04-27T00:32:43.414Z,100.00
2023-04-27T00:34:45.032Z,100.00
2023-04-27T00:36:46.595Z,100.00
2023-04-27T00:38:48.026Z,100.00
2023-04-27T00:40:49.609Z,100.00
2023-04-27T00:42:51.145Z,100.00
2023-04-27T00:44:52.558Z,100.00
2023-04-27T00:46:54.546Z,100.00
2023-04-27T00:48:56.572Z,100.00
2023-04-27T00:50:58.260Z,100.00
2023-04-27T00:52:59.888Z,100.00
2023-04-27T00:55:03.160Z,100.00
2023-04-27T00:57:04.864Z,100.00
2023-04-27T00:59:06.433Z,100.00
2023-04-27T01:01:07.992Z,100.00
2023-04-27T01:03:09.710Z,100.00
2023-04-27T01:05:12.089Z,100.00
2023-04-27T01:07:13.582Z,100.00
2023-04-27T01:09:15.283Z,100.00
2023-04-27T01:11:17.205Z,100.00
2023-04-27T01:13:18.759Z,100.00
2023-04-27T01:15:20.143Z,100.00
2023-04-27T01:17:21.702Z,100.00
2023-04-27T01:19:23.280Z,100.00
2023-04-27T01:21:25.262Z,100.00
2023-04-27T01:23:26.759Z,100.00
2023-04-27T01:25:28.236Z,100.00
2023-04-27T01:27:29.662Z,100.00
2023-04-27T01:29:31.145Z,100.00
2023-04-27T01:31:32.724Z,100.00
2023-04-27T01:33:34.168Z,100.00
2023-04-27T01:35:35.756Z,100.00
2023-04-27T01:37:37.373Z,100.00
2023-04-27T01:39:38.912Z,100.00
2023-04-27T01:41:40.298Z,100.00
2023-04-27T01:43:41.891Z,100.00
2023-04-27T01:45:43.300Z,100.00
2023-04-27T01:47:44.825Z,100.00
2023-04-27T01:49:46.475Z,100.00
2023-04-27T01:51:47.864Z,100.00
2023-04-27T01:53:49.528Z,100.00
2023-04-27T01:55:50.920Z,100.00
2023-04-27T01:57:52.404Z,100.00
2023-04-27T01:59:53.987Z,100.00
2023-04-27T02:01:55.594Z,100.00
2023-04-27T02:03:57.393Z,100.00
2023-04-27T02:05:59.422Z,100.00
2023-04-27T02:08:01.032Z,100.00
2023-04-27T02:10:02.588Z,100.00
2023-04-27T02:12:04.460Z,100.00
2023-04-27T02:14:05.888Z,100.00
2023-04-27T02:16:07.564Z,100.00
2023-04-27T02:18:09.171Z,100.00
2023-04-27T02:20:11.223Z,100.00
2023-04-27T02:22:12.988Z,100.00
2023-04-27T02:24:14.574Z,100.00
2023-04-27T02:26:20.602Z,100.00
2023-04-27T02:28:22.042Z,100.00
2023-04-27T02:30:24.157Z,100.00
2023-04-27T02:32:26.214Z,100.00
2023-04-27T02:34:27.623Z,100.00
2023-04-27T02:36:29.509Z,100.00
2023-04-27T02:38:31.071Z,100.00
2023-04-27T02:40:32.595Z,100.00
2023-04-27T02:42:34.182Z,100.00
2023-04-27T02:44:35.830Z,100.00
2023-04-27T02:46:37.234Z,100.00
2023-04-27T02:48:38.721Z,100.00
2023-04-27T02:50:41.323Z,100.00
2023-04-27T02:52:42.759Z,100.00
2023-04-27T02:54:44.237Z,100.00
2023-04-27T02:56:45.623Z,100.00
2023-04-27T02:58:47.050Z,100.00
2023-04-27T03:00:53.966Z,100.00
2023-04-27T03:02:56.118Z,100.00
2023-04-27T03:04:57.773Z,100.00
2023-04-27T03:06:59.191Z,100.00
2023-04-27T03:09:01.020Z,100.00
2023-04-27T03:11:02.419Z,100.00
2023-04-27T03:13:04.063Z,100.00
2023-04-27T03:15:05.864Z,100.00
2023-04-27T03:17:07.295Z,100.00
2023-04-27T03:19:08.943Z,100.00
2023-04-27T03:21:11.716Z,100.00
2023-04-27T03:23:13.188Z,100.00
2023-04-27T03:25:14.769Z,100.00
2023-04-27T03:27:16.319Z,100.00
2023-04-27T03:29:18.676Z,100.00
2023-04-27T03:31:20.194Z,100.00
2023-04-27T03:33:21.753Z,100.00
2023-04-27T03:35:23.184Z,100.00
2023-04-27T03:37:24.751Z,100.00
2023-04-27T03:39:27.330Z,100.00
2023-04-27T03:41:28.773Z,100.00
2023-04-27T03:43:30.449Z,100.00
2023-04-27T03:45:31.949Z,100.00
2023-04-27T03:47:33.471Z,100.00
2023-04-27T03:49:35.844Z,100.00
2023-04-27T03:51:37.263Z,100.00
2023-04-27T03:53:38.734Z,100.00
2023-04-27T03:55:41.547Z,100.00
2023-04-27T03:57:42.938Z,100.00
2023-04-27T03:59:44.332Z,100.00
2023-04-27T04:01:45.808Z,100.00
2023-04-27T04:03:47.491Z,100.00
2023-04-27T04:05:49.228Z,100.00
2023-04-27T04:07:50.815Z,100.00
2023-04-27T04:09:52.374Z,100.00
2023-04-27T04:11:53.808Z,100.00
2023-04-27T04:13:55.445Z,100.00
2023-04-27T04:16:08.255Z,100.00
2023-04-27T04:18:09.794Z,100.00
2023-04-27T04:20:12.000Z,100.00
2023-04-27T04:22:13.490Z,97.76
2023-04-27T04:24:14.874Z,93.21
2023-04-27T04:26:16.365Z,94.11
2023-04-27T04:28:17.833Z,95.16
2023-04-27T04:30:19.286Z,96.26
2023-04-27T04:32:20.798Z,97.00
2023-04-27T04:34:22.272Z,98.05
2023-04-27T04:36:23.707Z,96.29
2023-04-27T04:38:25.277Z,97.95
2023-04-27T04:40:26.972Z,100.00
2023-04-27T04:42:28.383Z,100.00
2023-04-27T04:44:29.969Z,100.00
2023-04-27T04:46:31.464Z,99.46
2023-04-27T04:48:32.940Z,99.28
2023-04-27T04:50:34.507Z,94.36
2023-04-27T04:52:36.076Z,87.64
2023-04-27T04:54:37.518Z,84.61
2023-04-27T04:56:39.227Z,79.34
2023-04-27T04:58:40.723Z,78.29
2023-04-27T05:00:42.148Z,73.25
2023-04-27T05:02:43.823Z,69.27
2023-04-27T05:04:45.484Z,70.59
2023-04-27T05:06:47.039Z,67.80
2023-04-27T05:08:48.569Z,67.19
2023-04-27T05:10:53.800Z,70.72
2023-04-27T05:12:55.228Z,68.81
2023-04-27T05:14:56.809Z,72.28
2023-04-27T05:16:58.429Z,72.24
2023-04-27T05:18:59.848Z,71.87
2023-04-27T05:21:01.568Z,73.60
2023-04-27T05:23:03.387Z,75.37
2023-04-27T05:25:05.369Z,75.33
2023-04-27T05:27:06.795Z,73.80
2023-04-27T05:29:08.305Z,70.42
2023-04-27T05:31:10.078Z,68.44
2023-04-27T05:33:11.843Z,64.58
2023-04-27T05:35:13.407Z,62.89
2023-04-27T05:37:14.825Z,69.96
2023-04-27T05:39:16.486Z,76.25
2023-04-27T05:41:18.158Z,79.25
2023-04-27T05:43:19.796Z,80.77
2023-04-27T05:45:21.665Z,78.85
2023-04-27T05:47:23.235Z,80.60
2023-04-27T05:49:24.643Z,77.15
2023-04-27T05:51:26.280Z,73.79
2023-04-27T05:53:28.664Z,72.65
2023-04-27T05:55:30.112Z,70.30
2023-04-27T05:57:32.094Z,68.00
2023-04-27T05:59:33.612Z,65.93
2023-04-27T06:01:35.020Z,68.34
2023-04-27T06:03:36.786Z,68.15
2023-04-27T06:05:38.557Z,68.57
2023-04-27T06:07:40.160Z,65.45
2023-04-27T06:09:42.358Z,65.57
2023-04-27T06:11:43.830Z,65.97
2023-04-27T06:13:45.221Z,62.25
2023-04-27T06:15:46.906Z,66.47
2023-04-27T06:17:48.389Z,68.34
2023-04-27T06:19:49.828Z,72.13
2023-04-27T06:21:51.387Z,76.38
2023-04-27T06:23:52.856Z,75.09
2023-04-27T06:25:54.276Z,75.40
2023-04-27T06:27:59.487Z,76.21
2023-04-27T06:30:01.063Z,78.18
2023-04-27T06:32:02.606Z,79.35
2023-04-27T06:34:04.124Z,82.84
2023-04-27T06:36:05.875Z,84.28
2023-04-27T06:38:08.041Z,88.01
2023-04-27T06:40:10.058Z,87.16
2023-04-27T06:42:11.844Z,86.03
2023-04-27T06:44:13.246Z,83.30
2023-04-27T06:46:15.256Z,84.67
2023-04-27T06:48:17.093Z,84.04
2023-04-27T06:50:18.637Z,83.84
2023-04-27T06:52:20.268Z,84.52
2023-04-27T06:54:21.759Z,82.42
2023-04-27T06:56:23.240Z,78.70
2023-04-27T06:58:24.716Z,73.71
2023-04-27T07:00:26.359Z,73.11
2023-04-27T07:02:27.802Z,71.40
2023-04-27T07:04:29.474Z,68.74
2023-04-27T07:06:31.181Z,71.67
2023-04-27T07:08:32.569Z,74.12
2023-04-27T07:10:34.124Z,74.56
2023-04-27T07:12:36.164Z,73.04
2023-04-27T07:14:37.592Z,71.06
2023-04-27T07:16:39.216Z,71.29
2023-04-27T07:18:43.176Z,71.52
2023-04-27T07:20:44.887Z,72.82
2023-04-27T07:22:46.344Z,76.08
2023-04-27T07:24:48.135Z,77.00
2023-04-27T07:26:49.557Z,77.66
2023-04-27T07:28:51.204Z,71.89
2023-04-27T07:30:52.622Z,71.35
2023-04-27T07:32:54.051Z,68.49
2023-04-27T07:34:56.109Z,66.86
2023-04-27T07:36:57.621Z,64.58
2023-04-27T07:38:59.050Z,61.95
2023-04-27T07:41:01.732Z,59.54
2023-04-27T07:43:03.306Z,59.17
2023-04-27T07:45:05.221Z,60.06
2023-04-27T07:47:06.888Z,58.13
2023-04-27T07:49:08.364Z,60.94
2023-04-27T07:51:09.757Z,60.47
2023-04-27T07:53:11.426Z,59.09
2023-04-27T07:55:12.979Z,61.23
2023-04-27T07:57:14.366Z,61.67
2023-04-27T07:59:16.115Z,60.13
2023-04-27T08:01:19.018Z,58.97
2023-04-27T08:03:22.456Z,61.77
2023-04-27T08:05:24.598Z,60.19
2023-04-27T08:07:27.067Z,58.95
2023-04-27T08:09:28.983Z,60.72
2023-04-27T08:11:30.760Z,63.91
2023-04-27T08:13:33.805Z,63.66
2023-04-27T08:15:36.000Z,61.71
2023-04-27T08:17:37.456Z,54.27
2023-04-27T08:19:38.984Z,53.60
2023-04-27T08:21:40.390Z,56.84
2023-04-27T08:23:42.599Z,55.88
2023-04-27T08:25:44.058Z,55.85
2023-04-27T08:27:45.439Z,56.23
2023-04-27T08:29:48.237Z,56.54
2023-04-27T08:31:49.949Z,58.21
2023-04-27T08:33:55.080Z,55.35
2023-04-27T08:35:56.722Z,52.43
2023-04-27T08:37:58.397Z,54.00
2023-04-27T08:39:59.811Z,54.74
2023-04-27T08:42:01.431Z,52.53
2023-04-27T08:44:06.709Z,55.09
2023-04-27T08:46:08.153Z,56.58
2023-04-27T08:48:09.872Z,58.43
2023-04-27T08:50:12.745Z,57.11
2023-04-27T08:52:15.315Z,58.84
2023-04-27T08:54:17.120Z,57.16
2023-04-27T08:56:21.757Z,55.96
2023-04-27T08:58:35.325Z,56.50
2023-04-27T09:00:41.392Z,59.88
2023-04-27T09:02:47.258Z,59.94
2023-04-27T09:04:49.001Z,60.66
2023-04-27T09:06:50.735Z,61.38
2023-04-27T09:08:52.142Z,60.38
2023-04-27T09:10:53.930Z,59.74
2023-04-27T09:12:59.755Z,59.19
2023-04-27T09:15:02.742Z,59.36
2023-04-27T09:17:04.182Z,58.85
2023-04-27T09:19:05.810Z,56.23
2023-04-27T09:21:07.278Z,57.57
2023-04-27T09:23:08.682Z,60.53
2023-04-27T09:25:10.168Z,59.60
2023-04-27T09:27:19.964Z,58.19
2023-04-27T09:29:32.426Z,58.06
2023-04-27T09:31:35.518Z,58.39
2023-04-27T09:33:37.430Z,59.24
2023-04-27T09:35:41.911Z,57.59
2023-04-27T09:37:43.907Z,57.20
2023-04-27T09:39:45.569Z,57.10
2023-04-27T09:41:48.666Z,52.57
2023-04-27T09:43:51.654Z,53.32
2023-04-27T09:45:55.253Z,55.01
2023-04-27T09:47:58.207Z,56.15
2023-04-27T09:50:01.869Z,51.67
2023-04-27T09:52:03.257Z,54.55
2023-04-27T09:54:05.209Z,53.53
2023-04-27T09:56:29.381Z,51.89
2023-04-27T09:58:53.376Z,50.40
2023-04-27T10:01:08.232Z,52.50
2023-04-27T10:03:15.673Z,52.60
2023-04-27T10:06:05.276Z,51.77
2023-04-27T10:08:07.283Z,53.34
2023-04-27T10:10:17.677Z,51.05
2023-04-27T10:12:28.034Z,51.09
2023-04-27T10:14:29.428Z,50.89
2023-04-27T10:16:45.608Z,48.65
2023-04-27T10:18:56.430Z,50.42
2023-04-27T10:21:09.958Z,50.46
2023-04-27T10:23:22.415Z,51.30
2023-04-27T10:25:25.228Z,49.08
2023-04-27T10:27:26.654Z,49.24
2023-04-27T10:29:35.642Z,48.25
2023-04-27T10:31:43.918Z,48.94
2023-04-27T10:33:45.318Z,46.85
2023-04-27T10:35:55.543Z,46.77
2023-04-27T10:38:05.977Z,47.29
2023-04-27T10:40:10.357Z,46.74
2023-04-27T10:42:11.872Z,46.70
2023-04-27T10:44:16.211Z,43.78
2023-04-27T10:46:17.631Z,45.46
2023-04-27T10:48:19.373Z,44.58
2023-04-27T10:50:22.467Z,45.29
2023-04-27T10:52:23.907Z,45.36
2023-04-27T10:54:28.240Z,44.63
2023-04-27T10:56:29.820Z,42.79
2023-04-27T10:58:41.559Z,44.56
2023-04-27T11:00:50.118Z,45.02
2023-04-27T11:02:53.197Z,45.31
2023-04-27T11:04:56.262Z,45.78
2023-04-27T11:06:57.992Z,47.04
2023-04-27T11:08:59.714Z,48.54
2023-04-27T11:11:01.212Z,50.12
2023-04-27T11:13:14.696Z,50.47
2023-04-27T11:15:16.341Z,50.63
2023-04-27T11:17:28.989Z,50.99
2023-04-27T11:19:31.107Z,53.94
2023-04-27T11:21:32.684Z,50.76
2023-04-27T11:23:34.769Z,49.94
2023-04-27T11:25:36.568Z,49.99
2023-04-27T11:27:39.936Z,49.24
2023-04-27T11:29:41.362Z,48.75
2023-04-27T11:31:45.460Z,49.68
2023-04-27T11:33:50.089Z,51.18
2023-04-27T11:35:51.549Z,48.33
2023-04-27T11:37:58.745Z,49.62
2023-04-27T11:40:00.439Z,48.33
2023-04-27T11:42:22.339Z,50.70
2023-04-27T11:44:27.105Z,49.51
2023-04-27T11:46:28.590Z,48.71
2023-04-27T11:48:30.316Z,46.42
2023-04-27T11:50:31.781Z,48.38
2023-04-27T11:52:35.647Z,50.06
2023-04-27T11:54:37.381Z,47.70
2023-04-27T11:56:41.371Z,48.56
2023-04-27T11:58:44.386Z,50.13
2023-04-27T12:00:47.556Z,46.54
2023-04-27T12:02:49.229Z,48.61
2023-04-27T12:04:51.695Z,48.57
2023-04-27T12:06:53.313Z,50.19
2023-04-27T12:08:56.581Z,49.83
2023-04-27T12:10:58.524Z,49.28
2023-04-27T12:12:59.908Z,49.71
2023-04-27T12:15:01.799Z,51.68
2023-04-27T12:17:03.445Z,49.41
2023-04-27T12:19:04.927Z,48.38
2023-04-27T12:21:08.219Z,47.99
2023-04-27T12:23:10.228Z,47.93
2023-04-27T12:25:11.665Z,47.80
2023-04-27T12:27:13.271Z,46.24
2023-04-27T12:29:15.199Z,45.89
2023-04-27T12:31:16.648Z,47.88
2023-04-27T12:33:18.318Z,47.57
2023-04-27T12:35:19.989Z,48.21
2023-04-27T12:37:21.400Z,48.06
2023-04-27T12:39:23.974Z,49.29
2023-04-27T12:41:25.983Z,47.80
2023-04-27T12:43:27.907Z,49.48
2023-04-27T12:45:29.564Z,47.06
2023-04-27T12:49:35.400Z,45.79
2023-04-27T12:51:37.539Z,44.26
2023-04-27T12:53:39.025Z,43.86
2023-04-27T12:55:40.474Z,43.82
2023-04-27T12:57:42.093Z,43.39
2023-04-27T12:59:43.809Z,45.29
2023-04-27T13:01:45.352Z,43.05
2023-04-27T13:03:47.817Z,45.48
2023-04-27T13:05:49.654Z,42.62
2023-04-27T13:07:52.571Z,42.64
2023-04-27T13:09:53.985Z,44.25
2023-04-27T13:11:55.787Z,43.09
2023-04-27T13:13:57.185Z,44.91
2023-04-27T13:15:58.727Z,43.25
2023-04-27T13:18:00.263Z,43.59
2023-04-27T13:20:01.801Z,41.56
2023-04-27T13:22:03.533Z,43.58
2023-04-27T13:24:05.703Z,44.18
2023-04-27T13:26:07.102Z,45.24
2023-04-27T13:28:08.840Z,42.91
2023-04-27T13:30:10.836Z,44.19
2023-04-27T13:32:12.274Z,45.12
2023-04-27T13:34:14.052Z,43.78
2023-04-27T13:36:15.754Z,42.49
2023-04-27T13:38:17.185Z,43.53
2023-04-27T13:40:19.129Z,45.17
2023-04-27T13:42:20.533Z,44.90
2023-04-27T13:44:21.920Z,42.73
2023-04-27T13:46:23.443Z,41.89
2023-04-27T13:48:25.072Z,41.42
2023-04-27T13:50:26.591Z,41.72
2023-04-27T13:52:28.145Z,42.07
2023-04-27T13:54:29.662Z,40.51
2023-04-27T13:56:31.110Z,41.52
2023-04-27T13:58:32.763Z,41.82
2023-04-27T14:00:34.511Z,42.67
2023-04-27T14:02:36.301Z,41.37
2023-04-27T14:04:38.187Z,42.11
2023-04-27T14:06:39.821Z,41.15
2023-04-27T14:08:41.235Z,42.02
2023-04-27T14:10:44.360Z,40.89
2023-04-27T14:12:45.894Z,41.74
2023-04-27T14:14:47.319Z,44.15
2023-04-27T14:16:49.063Z,42.05
2023-04-27T14:18:50.762Z,43.44
2023-04-27T14:20:52.217Z,43.56
2023-04-27T14:22:55.398Z,44.40
2023-04-27T14:24:58.297Z,45.39
2023-04-27T14:26:59.712Z,46.18
2023-04-27T14:29:01.112Z,45.09
2023-04-27T14:31:02.688Z,44.90
2023-04-27T14:33:04.141Z,45.34
2023-04-27T14:35:06.024Z,46.30
2023-04-27T14:37:07.531Z,46.67
2023-04-27T14:39:08.996Z,45.94
2023-04-27T14:41:10.394Z,45.88
2023-04-27T14:43:11.934Z,45.79
2023-04-27T14:45:13.444Z,45.83
2023-04-27T14:47:14.845Z,45.23
2023-04-27T14:49:17.051Z,45.12
2023-04-27T14:51:18.724Z,43.54
2023-04-27T14:53:20.669Z,45.00
2023-04-27T14:55:22.205Z,44.28
2023-04-27T14:57:23.644Z,43.57
2023-04-27T14:59:25.064Z,45.42
2023-04-27T15:01:26.582Z,43.84
2023-04-27T15:03:28.683Z,42.67
2023-04-27T15:05:30.310Z,44.81
2023-04-27T15:07:31.836Z,44.87
2023-04-27T15:09:34.035Z,44.19
2023-04-27T15:11:35.614Z,46.18
2023-04-27T15:13:37.183Z,43.04
2023-04-27T15:15:38.616Z,42.92
2023-04-27T15:17:40.274Z,43.70
2023-04-27T15:19:41.706Z,44.78
2023-04-27T15:21:43.062Z,44.92
2023-04-27T15:23:44.528Z,45.10
2023-04-27T15:25:47.530Z,44.30
2023-04-27T15:27:48.936Z,45.13
2023-04-27T15:29:50.349Z,44.61
2023-04-27T15:31:51.752Z,45.08
2023-04-27T15:33:53.151Z,45.07
2023-04-27T15:35:54.665Z,44.89
2023-04-27T15:37:56.100Z,45.11
2023-04-27T15:39:57.514Z,45.63
2023-04-27T15:41:58.993Z,46.06
2023-04-27T15:44:00.497Z,46.29
2023-04-27T15:46:05.069Z,45.98
2023-04-27T15:48:06.711Z,46.09
2023-04-27T15:50:08.397Z,46.63
2023-04-27T15:52:09.819Z,46.74
2023-04-27T15:54:11.397Z,46.85
2023-04-27T15:56:12.863Z,46.47
2023-04-27T15:58:15.453Z,44.88
2023-04-27T16:00:17.274Z,46.19
2023-04-27T16:02:18.949Z,45.53
2023-04-27T16:04:20.538Z,45.21
2023-04-27T16:06:22.343Z,45.11
2023-04-27T16:08:23.904Z,44.28
2023-04-27T16:10:25.666Z,44.93
2023-04-27T16:12:27.390Z,43.95
2023-04-27T16:14:29.086Z,43.39
2023-04-27T16:16:30.557Z,44.40
2023-04-27T16:18:32.149Z,43.76
2023-04-27T16:20:36.246Z,43.19
2023-04-27T16:22:38.289Z,43.20
2023-04-27T16:24:39.819Z,42.50
2023-04-27T16:26:41.331Z,43.46
2023-04-27T16:28:43.046Z,43.39
2023-04-27T16:30:44.697Z,42.27
2023-04-27T16:32:46.141Z,44.73
2023-04-27T16:34:47.658Z,41.98
2023-04-27T16:36:49.247Z,44.83
2023-04-27T16:38:50.729Z,43.92
2023-04-27T16:40:52.175Z,43.59
2023-04-27T16:42:53.570Z,44.44
2023-04-27T16:44:55.138Z,46.59
2023-04-27T16:46:56.757Z,45.89
2023-04-27T16:48:58.271Z,46.38
2023-04-27T16:50:59.837Z,46.06
2023-04-27T16:53:19.472Z,47.10
2023-04-27T16:55:20.860Z,47.68
2023-04-27T16:57:22.365Z,45.71
2023-04-27T16:59:23.803Z,46.12
2023-04-27T17:01:25.438Z,47.31
2023-04-27T17:03:27.218Z,47.01
2023-04-27T17:05:28.728Z,47.77
2023-04-27T17:07:30.351Z,47.22
2023-04-27T17:09:31.809Z,49.08
2023-04-27T17:11:33.292Z,48.24
2023-04-27T17:13:35.046Z,48.01
2023-04-27T17:15:36.468Z,48.25
2023-04-27T17:17:38.171Z,49.20
2023-04-27T17:19:39.707Z,47.87
2023-04-27T17:21:41.368Z,48.35
2023-04-27T17:23:42.789Z,47.97
2023-04-27T17:25:44.404Z,50.25
2023-04-27T17:27:45.883Z,49.04
2023-04-27T17:29:47.815Z,48.82
2023-04-27T17:31:49.365Z,49.34
2023-04-27T17:33:50.924Z,49.87
2023-04-27T17:35:52.336Z,49.49
2023-04-27T17:37:53.877Z,50.54
2023-04-27T17:39:55.403Z,50.68
2023-04-27T17:41:56.976Z,52.61
2023-04-27T17:43:58.590Z,51.77
2023-04-27T17:46:00.010Z,51.92
2023-04-27T17:48:01.665Z,52.56
2023-04-27T17:50:03.672Z,53.57
2023-04-27T17:52:05.585Z,52.69
2023-04-27T17:54:07.107Z,53.90
2023-04-27T17:56:08.594Z,53.77
2023-04-27T17:58:09.970Z,54.75
2023-04-27T18:00:11.858Z,52.77
2023-04-27T18:02:13.551Z,54.06
2023-04-27T18:04:15.109Z,54.18
2023-04-27T18:06:16.711Z,55.27
2023-04-27T18:08:18.300Z,54.93
2023-04-27T18:10:19.744Z,55.68
2023-04-27T18:12:21.367Z,54.07
2023-04-27T18:14:22.891Z,57.10
2023-04-27T18:16:24.590Z,56.51
2023-04-27T18:18:26.241Z,56.44
2023-04-27T18:20:28.069Z,57.37
2023-04-27T18:22:29.494Z,57.11
2023-04-27T18:24:31.075Z,58.25
2023-04-27T18:26:34.936Z,59.80
2023-04-27T18:28:36.436Z,57.61
2023-04-27T18:30:37.913Z,58.92
2023-04-27T18:32:39.313Z,61.41
2023-04-27T18:34:40.791Z,62.03
2023-04-27T18:36:42.324Z,61.53
2023-04-27T18:38:43.784Z,59.95
2023-04-27T18:40:45.188Z,59.33
2023-04-27T18:42:47.000Z,60.96
2023-04-27T18:44:48.469Z,61.43
2023-04-27T18:46:49.902Z,63.74
2023-04-27T18:48:51.394Z,64.06
2023-04-27T18:50:52.793Z,67.03
2023-04-27T18:52:54.177Z,66.51
2023-04-27T18:54:55.680Z,68.98
2023-04-27T18:56:57.088Z,69.47
2023-04-27T18:58:58.523Z,69.96
2023-04-27T19:01:00.010Z,68.70
2023-04-27T19:03:01.651Z,66.28
2023-04-27T19:05:12.110Z,66.60
2023-04-27T19:07:14.798Z,67.56
2023-04-27T19:09:16.500Z,67.98
2023-04-27T19:11:17.988Z,67.41
2023-04-27T19:13:19.511Z,68.41
2023-04-27T19:15:21.068Z,69.57
2023-04-27T19:17:22.715Z,71.60
2023-04-27T19:19:24.364Z,71.31
2023-04-27T19:21:25.791Z,69.72
2023-04-27T19:23:27.352Z,69.68
2023-04-27T19:25:28.896Z,71.41
2023-04-27T19:27:30.328Z,70.06
2023-04-27T19:29:31.741Z,72.41
2023-04-27T19:31:33.325Z,74.83
2023-04-27T19:33:34.796Z,73.61
2023-04-27T19:35:36.224Z,72.48
2023-04-27T19:37:40.815Z,72.96
2023-04-27T19:39:42.274Z,71.58
2023-04-27T19:41:43.688Z,73.91
2023-04-27T19:43:45.191Z,74.47
2023-04-27T19:45:46.774Z,77.01
2023-04-27T19:47:48.234Z,80.21
2023-04-27T19:49:49.744Z,79.61
2023-04-27T19:51:51.187Z,80.44
2023-04-27T19:53:52.660Z,80.14
2023-04-27T19:55:54.635Z,82.17
2023-04-27T19:57:56.045Z,81.20
2023-04-27T19:59:57.446Z,80.57
2023-04-27T20:01:59.170Z,84.45
2023-04-27T20:04:00.931Z,83.55
2023-04-27T20:06:02.969Z,85.06
2023-04-27T20:08:04.696Z,85.47
2023-04-27T20:10:06.766Z,87.94
2023-04-27T20:12:19.428Z,86.97
2023-04-27T20:14:31.154Z,85.35
2023-04-27T20:16:32.904Z,85.14
2023-04-27T20:18:34.305Z,85.35
2023-04-27T20:20:35.856Z,87.29
2023-04-27T20:22:38.534Z,88.90
2023-04-27T20:24:39.928Z,88.12
2023-04-27T20:26:41.564Z,86.22
2023-04-27T20:28:43.002Z,86.49
2023-04-27T20:30:44.489Z,85.67
2023-04-27T20:32:46.031Z,85.45
2023-04-27T20:34:47.561Z,85.41
2023-04-27T20:36:48.980Z,86.35
2023-04-27T20:38:50.514Z,86.41
2023-04-27T20:40:52.809Z,87.88
2023-04-27T20:42:54.215Z,89.50
2023-04-27T20:44:55.714Z,90.15
2023-04-27T20:46:57.220Z,90.33
2023-04-27T20:48:58.603Z,89.90
2023-04-27T20:51:00.132Z,89.98
2023-04-27T20:53:01.644Z,92.20
2023-04-27T20:55:04.414Z,93.04
2023-04-27T20:57:05.918Z,93.28
2023-04-27T20:59:07.906Z,95.73
2023-04-27T21:01:09.542Z,98.61
2023-04-27T21:03:11.278Z,96.44
2023-04-27T21:05:12.775Z,97.02
2023-04-27T21:07:14.222Z,97.66
2023-04-27T21:09:15.727Z,96.09
2023-04-27T21:11:18.170Z,97.55
2023-04-27T21:13:19.768Z,99.09
2023-04-27T21:15:21.354Z,100.00
2023-04-27T21:17:22.855Z,100.00
2023-04-27T21:19:24.248Z,100.00
2023-04-27T21:21:25.649Z,100.00
2023-04-27T21:23:27.116Z,100.00
2023-04-27T21:25:28.509Z,100.00
2023-04-27T21:27:30.747Z,100.00
2023-04-27T21:29:34.681Z,100.00
2023-04-27T21:31:36.103Z,100.00
2023-04-27T21:33:37.663Z,100.00
2023-04-27T21:35:39.178Z,100.00
2023-04-27T21:37:40.606Z,100.00
2023-04-27T21:39:42.379Z,100.00
2023-04-27T21:41:43.839Z,100.00
2023-04-27T21:43:45.258Z,100.00
2023-04-27T21:45:46.894Z,100.00
2023-04-27T21:47:48.399Z,100.00
2023-04-27T21:49:51.184Z,100.00
2023-04-27T21:51:53.895Z,100.00
2023-04-27T21:53:55.437Z,100.00
2023-04-27T21:55:57.046Z,100.00
2023-04-27T21:57:58.544Z,100.00
2023-04-27T22:00:00.195Z,100.00
2023-04-27T22:02:01.737Z,100.00
2023-04-27T22:04:04.091Z,100.00
2023-04-27T22:06:05.812Z,100.00
2023-04-27T22:08:07.208Z,100.00
2023-04-27T22:10:09.216Z,100.00
2023-04-27T22:12:10.656Z,100.00
2023-04-27T22:14:12.071Z,100.00
2023-04-27T22:16:14.005Z,100.00
2023-04-27T22:18:15.794Z,100.00
2023-04-27T22:20:17.333Z,100.00
2023-04-27T22:22:18.868Z,100.00
2023-04-27T22:24:20.561Z,100.00
2023-04-27T22:26:22.054Z,100.00
2023-04-27T22:28:23.472Z,100.00
2023-04-27T22:30:25.246Z,100.00
2023-04-27T22:32:26.782Z,100.00
2023-04-27T22:34:28.247Z,100.00
2023-04-27T22:36:29.904Z,100.00
2023-04-27T22:38:31.505Z,100.00
2023-04-27T22:40:32.914Z,100.00
2023-04-27T22:42:34.603Z,100.00
2023-04-27T22:44:36.027Z,100.00
2023-04-27T22:46:37.502Z,100.00
2023-04-27T22:48:39.449Z,100.00
2023-04-27T22:50:40.854Z,100.00
2023-04-27T22:52:42.569Z,100.00
2023-04-27T22:54:44.079Z,100.00
2023-04-27T22:56:45.527Z,100.00
2023-04-27T22:58:47.015Z,100.00
2023-04-27T23:00:48.597Z,100.00
2023-04-27T23:02:50.200Z,100.00
2023-04-27T23:04:51.996Z,100.00
2023-04-27T23:06:53.591Z,100.00
2023-04-27T23:08:54.985Z,100.00
2023-04-27T23:10:56.635Z,100.00
2023-04-27T23:12:58.235Z,100.00
2023-04-27T23:14:59.688Z,100.00
2023-04-27T23:17:01.219Z,100.00
2023-04-27T23:19:02.872Z,100.00
2023-04-27T23:21:04.308Z,100.00
2023-04-27T23:23:05.790Z,100.00
2023-04-27T23:25:07.674Z,100.00
2023-04-27T23:27:09.078Z,100.00
2023-04-27T23:29:10.495Z,100.00
2023-04-27T23:31:12.191Z,100.00
2023-04-27T23:33:13.620Z,100.00
2023-04-27T23:35:15.211Z,100.00
2023-04-27T23:37:16.872Z,100.00
2023-04-27T23:39:18.288Z,100.00
2023-04-27T23:41:19.902Z,100.00
2023-04-27T23:43:21.481Z,100.00
2023-04-27T23:45:22.909Z,100.00
2023-04-27T23:47:24.474Z,100.00
2023-04-27T23:49:26.098Z,100.00
2023-04-27T23:51:27.546Z,100.00
2023-04-27T23:53:29.018Z,100.00
2023-04-27T23:55:30.664Z,100.00
2023-04-27T23:57:32.085Z,100.00
2023-04-27T23:59:34.435Z,100.00
